Old Hickory Observed Data For Previous 48 Hours

Caption
Day and Hour Reservoir Elevation (behind dam)* Tailwater Elevation (below dam)* Average Hourly Discharge*
9/21/2017 1 AM CDT 444.38 388.63 5,900
9/21/2017 2 AM CDT 444.45 388.19 5,800
9/21/2017 3 AM CDT 444.49 387.93 5,800
9/21/2017 4 AM CDT 444.54 387.64 5,800
9/21/2017 5 AM CDT 444.59 387.52 5,800
9/21/2017 6 AM CDT 444.61 387.52 5,800
9/21/2017 7 AM CDT 444.64 387.49 -999
9/21/2017 8 AM CDT 444.65 387.45 -999
9/21/2017 9 AM CDT 444.60 387.69 -999
9/21/2017 10 AM CDT 444.55 387.43 5,800
9/21/2017 11 AM CDT 444.40 388.96 11,800
9/21/2017 12 PM CDT 444.36 389.23 12,000
9/21/2017 1 PM CDT 444.47 392.98 19,200
9/21/2017 2 PM CDT 444.47 393.06 19,200
9/21/2017 3 PM CDT 444.48 393.13 19,200
9/21/2017 4 PM CDT 444.47 393.13 19,200
9/21/2017 5 PM CDT 444.50 391.73 12,400
9/21/2017 6 PM CDT 444.60 389.63 6,000
9/21/2017 7 PM CDT 444.66 389.18 5,900
9/21/2017 8 PM CDT 444.69 388.56 5,900
9/21/2017 9 PM CDT 444.73 388.32 5,800
9/21/2017 10 PM CDT 444.79 388.00 5,800
9/21/2017 11 PM CDT 444.81 387.85 5,800
9/22/2017 12 AM CDT 444.84 387.73 5,800
9/22/2017 1 AM CDT 444.86 387.67 5,800
9/22/2017 2 AM CDT 444.73 388.32 -999
9/22/2017 3 AM CDT 444.79 388.00 -999
9/22/2017 4 AM CDT 444.81 387.85 -999
9/22/2017 5 AM CDT 444.84 387.73 -999
9/22/2017 6 AM CDT 444.86 387.67 5,800
9/22/2017 7 AM CDT 444.75 387.55 5,800
9/22/2017 8 AM CDT 444.70 387.50 5,800
9/22/2017 9 AM CDT 444.67 387.43 5,800
9/22/2017 10 AM CDT 444.55 389.45 12,000
9/22/2017 11 AM CDT 444.53 390.00 12,200
9/22/2017 12 PM CDT 444.50 390.05 12,200
9/22/2017 1 PM CDT 444.45 391.60 18,600
9/22/2017 2 PM CDT 444.50 392.58 19,200
9/22/2017 3 PM CDT 444.55 392.75 19,200
9/22/2017 4 PM CDT 444.56 393.05 19,200
9/22/2017 5 PM CDT 444.57 393.12 19,200
9/22/2017 6 PM CDT 444.58 393.15 19,200
9/22/2017 7 PM CDT 444.52 393.33 19,500
9/22/2017 8 PM CDT 444.52 393.32 19,500
9/22/2017 9 PM CDT 444.57 391.60 12,400
9/22/2017 10 PM CDT 444.59 391.33 12,400
9/22/2017 11 PM CDT 444.65 389.45 6,000
9/23/2017 12 AM CDT 444.74 389.02 5,900

Elevations are in feet above sea level. Discharges are in cubic feet per second and are reported at the end of the hour.